Ride Results

Kiwarrak Cup (28-10-2012)
Ride distance: 80.0 km

Outcomes - Kiwarrak Cup (28-10-2012)
Division No. of Entries Retired / DNE Completed Withdrawn Ineligible V/O Percentage Completed
HW 7 - 7 - - - 100.00%
MW 22 - 21 - - 1 95.45%
LW 9 - 9 - - - 100.00%
JN 6 - 5 - - 1 83.33%
Totals 44 - 42 - - 2 95.45%
Results - Kiwarrak Cup (28-10-2012)
No. Rider Horse Place Time Leg Speeds Total
Km/Hr
H/R bpm
Heavyweight
35 Allan Watts Shakla's Sudden Impact 1 5:01:00 17.1, 14.9 15.95 37, 38, 53 (Avg:45)
25 Gary Thomas Ben Mariah 2 5:58:00 15.4, 11.8 13.41 35, 50, 60 (Avg:55)
7 Steve Broadbent Foxridge Kalypso King 3 6:03:00 13.1, 13.2 13.22 37, 39, 47 (Avg:43)
3 Peter Cooper Solvang Farm Mataeus 4 6:50:00 12.4, 11.0 11.71 34, 51, 57 (Avg:54)
32 Gary Pevy Churinga Lite Mi Fire 5 7:05:00 11.4, 11.1 11.29 48, 47, 52 (Avg:49)
33 Phil Coleman Rainbows Reach Snowfyre 6 7:17:00 11.4, 10.5 10.98 41, 49, 52 (Avg:50)
11 Allan Caslick Beaujangles te 7 7:59:00 10.3, 9.7 10.02 41, 48, 49 (Avg:48)
Middleweight
9 Thomas Hermann TTH Headliner 1 4:24:00 17.9, 18.4 18.18 33, 40, 47 (Avg:43)
31 Debbie Pevy Burren-Dah Walter 2 4:32:00 17.5, 17.7 17.65 36, 48, 52 (Avg:50)
26 Darryl King Shanadarr Khaleel 3 5:02:00 17.5, 14.5 15.89 40, 47, 56 (Avg:51)
10 Carol Major Major Luke 4 5:39:00 13.9, 14.3 14.16 32, 41, 49 (Avg:45)
12 Sharon Foster Sharabel Maleka 5 6:04:00 13.1, 13.2 13.19 40, 47, 49 (Avg:48)
23 Sally Griffin Magic Glenn Lumiah 6 6:08:00 13.2, 12.8 13.04 34, 41, 50 (Avg:45)
40 Elizabeth Moir Kenya s Gold 7 6:22:00 12.4, 12.6 12.57 32, 34, 41 (Avg:37)
8 Tracy Broadbent Swamp Rock 8 6:54:00 12.5, 10.7 11.59 42, 36, 58 (Avg:47)
41 April Bonham Lyndrian Genesis 9 7:13:00 11.4, 10.7 11.09 35, 44, 49 (Avg:46)
29 Frances Mudford Yahweh-Salih Sir Ibn Gelibene 10 7:18:00 11.1, 10.8 10.96 38, 44, 59 (Avg:51)
28 Sonya Ruprecht Yahweh-Salih Rasami 10 7:18:00 11.1, 10.8 10.96 33, 42, 47 (Avg:44)
5 Renee Kirk Henley Farm Rafi 12 7:33:00 11.0, 10.2 10.60 31, 36, 41 (Avg:38)
2 Margaret Boland Rosebrae Cameo 13 7:42:00 10.5, 10.2 10.39 40, 39, 49 (Avg:44)
37 Hannah Houlden Willowmead Sassy 14 7:43:00 10.3, 10.4 10.37 42, 42, 48 (Avg:45)
38 Debra McQueen Tora Karlaya 14 7:43:00 10.3, 10.4 10.37 38, 38, 43 (Avg:40)
42 Terri McLeod Al Wathba Tazmir 16 7:57:00 10.6, 9.5 10.06 35, 43, 44 (Avg:43)
1 Allison Knihinicki Ky 17 8:03:00 10.4, 9.4 9.94 33, 43, 52 (Avg:47)
22 Dianne Brown Attalah Resyk 18 8:38:00 10.1, 8.5 9.27 38, 41, 46 (Avg:43)
21 Ruth Van der Wegen Aloha Ameer 18 8:38:00 10.1, 8.5 9.27 36, 37, 44 (Avg:40)
4 Jenni Sansom Alchin Meadows Chantilly Lace 20 8:46:00 9.9, 8.4 9.13 34, 40, 41 (Avg:40)
17 Katrina Bodewes Banfield Paris 21 8:49:00 10.3, 8.0 9.07 37, 47, 49 (Avg:48)
39 Bridget Nottle Basic Instinct te Lame L2 0:00:00 10.3, 9.7 - 39, 43, 53 (Avg:48)
Lightweight
24 Renee Schneider Badia Just Rosie 1 5:10:00 16.1, 14.9 15.48 38, 40, 48 (Avg:44)
19 Emma Broome Jezabelle Sweet Dreams 2 5:36:00 15.9, 12.9 14.29 39, 47, 45 (Avg:46)
18 Robin Young Razorback Kadance 3 5:39:00 14.0, 14.2 14.16 37, 46, 53 (Avg:49)
27 Anne Hills Kerewong Shelfyre 4 5:46:00 15.5, 12.4 13.87 34, 41, 48 (Avg:44)
44 Karen Anderson Malleegrove Samsara 5 7:00:00 13.4, 9.9 11.43 41, 49, 50 (Avg:49)
36 Antonia Somerville Allyndah Dezynah Vogue 6 7:03:00 11.4, 11.2 11.35 37, 48, 54 (Avg:51)
34 Ros Ryan Cloudburst 7 7:17:00 11.4, 10.5 10.98 38, 50, 53 (Avg:51)
6 Allix Jones Garnee Torque 8 7:33:00 11.0, 10.2 10.60 37, 43, 47 (Avg:45)
14 Lyn Dillon Banfield Khamsin 9 8:49:00 10.3, 8.0 9.07 40, 44, 47 (Avg:45)
Junior
20 Andrew Mackinder Sundown Park Cariad 1 5:10:00 15.9, 14.9 15.48 38, 38, 40 (Avg:39)
15 Tayla Warren Warren Park Kiara 2 5:38:00 13.9, 14.4 14.20 37, 42, 44 (Avg:43)
13 Isabel Foster Sharabel Akaysha 3 6:04:00 13.1, 13.2 13.19 32, 38, 44 (Avg:41)
30 Tomeika Bond-Pevy Makhtar 4 7:05:00 11.4, 11.1 11.29 47, 50, 51 (Avg:50)
16 Mia Bodewes Booramby Jacob 5 7:13:00 11.4, 10.7 11.09 36, 42, 57 (Avg:49)
43 Shannen Thorsby Whyneemah Abu Lame L2 0:00:00 12.2, 10.9 - 35, 44, 54 (Avg:49)